sensor_id;sensor_type;location;lat;lon;timestamp;P1;durP1;ratioP1;P2;durP2;ratioP2
42614;SDS011;28754;47.700;7.924;2023-02-03T00:01:33;9.02;;;2.58;;
42614;SDS011;28754;47.700;7.924;2023-02-03T00:04:20;7.18;;;2.55;;
42614;SDS011;28754;47.700;7.924;2023-02-03T00:07:08;9.23;;;2.50;;
42614;SDS011;28754;47.700;7.924;2023-02-03T00:09:57;8.30;;;2.85;;
42614;SDS011;28754;47.700;7.924;2023-02-03T00:12:44;5.25;;;2.03;;
42614;SDS011;28754;47.700;7.924;2023-02-03T00:15:30;6.13;;;1.98;;
42614;SDS011;28754;47.700;7.924;2023-02-03T00:18:17;7.07;;;2.70;;
42614;SDS011;28754;47.700;7.924;2023-02-03T00:21:04;6.22;;;2.53;;
42614;SDS011;28754;47.700;7.924;2023-02-03T00:23:51;7.40;;;2.58;;
42614;SDS011;28754;47.700;7.924;2023-02-03T00:26:40;7.28;;;2.30;;
42614;SDS011;28754;47.700;7.924;2023-02-03T00:29:27;13.32;;;2.47;;
42614;SDS011;28754;47.700;7.924;2023-02-03T00:32:14;4.55;;;2.20;;
42614;SDS011;28754;47.700;7.924;2023-02-03T00:35:03;4.50;;;2.25;;
42614;SDS011;28754;47.700;7.924;2023-02-03T00:37:51;7.80;;;2.50;;
42614;SDS011;28754;47.700;7.924;2023-02-03T00:40:40;4.28;;;2.33;;
42614;SDS011;28754;47.700;7.924;2023-02-03T00:43:27;7.18;;;1.98;;
42614;SDS011;28754;47.700;7.924;2023-02-03T00:46:14;6.63;;;2.20;;
42614;SDS011;28754;47.700;7.924;2023-02-03T00:49:02;5.30;;;2.13;;
42614;SDS011;28754;47.700;7.924;2023-02-03T00:51:49;5.15;;;1.95;;
42614;SDS011;28754;47.700;7.924;2023-02-03T00:54:37;7.05;;;2.30;;
42614;SDS011;28754;47.700;7.924;2023-02-03T00:57:23;12.93;;;3.28;;
42614;SDS011;28754;47.700;7.924;2023-02-03T01:00:10;4.55;;;1.98;;
42614;SDS011;28754;47.700;7.924;2023-02-03T01:02:57;8.57;;;2.13;;
42614;SDS011;28754;47.700;7.924;2023-02-03T01:05:44;3.55;;;1.80;;
42614;SDS011;28754;47.700;7.924;2023-02-03T01:08:31;3.58;;;1.80;;
42614;SDS011;28754;47.700;7.924;2023-02-03T01:11:19;9.35;;;3.67;;
42614;SDS011;28754;47.700;7.924;2023-02-03T01:14:12;9.60;;;2.40;;
42614;SDS011;28754;47.700;7.924;2023-02-03T01:16:59;19.65;;;3.67;;
42614;SDS011;28754;47.700;7.924;2023-02-03T01:19:46;5.72;;;2.38;;
42614;SDS011;28754;47.700;7.924;2023-02-03T01:22:32;7.35;;;2.28;;
42614;SDS011;28754;47.700;7.924;2023-02-03T01:25:19;4.95;;;2.05;;
42614;SDS011;28754;47.700;7.924;2023-02-03T01:28:06;7.22;;;2.45;;
42614;SDS011;28754;47.700;7.924;2023-02-03T01:30:53;7.18;;;2.22;;
42614;SDS011;28754;47.700;7.924;2023-02-03T01:33:39;4.88;;;2.08;;
42614;SDS011;28754;47.700;7.924;2023-02-03T01:36:28;6.07;;;2.78;;
42614;SDS011;28754;47.700;7.924;2023-02-03T01:39:16;8.10;;;2.30;;
42614;SDS011;28754;47.700;7.924;2023-02-03T01:42:07;7.13;;;1.88;;
42614;SDS011;28754;47.700;7.924;2023-02-03T01:44:57;8.40;;;2.67;;
42614;SDS011;28754;47.700;7.924;2023-02-03T01:47:48;7.20;;;2.35;;
42614;SDS011;28754;47.700;7.924;2023-02-03T01:50:41;12.38;;;2.50;;
42614;SDS011;28754;47.700;7.924;2023-02-03T01:53:27;7.75;;;2.88;;
42614;SDS011;28754;47.700;7.924;2023-02-03T01:56:14;7.30;;;2.50;;
42614;SDS011;28754;47.700;7.924;2023-02-03T01:59:02;8.05;;;3.08;;
42614;SDS011;28754;47.700;7.924;2023-02-03T02:01:50;7.35;;;2.42;;
42614;SDS011;28754;47.700;7.924;2023-02-03T02:04:45;11.07;;;2.92;;
42614;SDS011;28754;47.700;7.924;2023-02-03T02:07:44;8.68;;;2.90;;
42614;SDS011;28754;47.700;7.924;2023-02-03T02:10:33;10.95;;;2.72;;
42614;SDS011;28754;47.700;7.924;2023-02-03T02:13:20;11.77;;;2.78;;
42614;SDS011;28754;47.700;7.924;2023-02-03T02:16:10;8.98;;;2.63;;
42614;SDS011;28754;47.700;7.924;2023-02-03T02:23:35;9.32;;;3.58;;
42614;SDS011;28754;47.700;7.924;2023-02-03T02:36:31;8.27;;;3.10;;
42614;SDS011;28754;47.700;7.924;2023-02-03T02:39:44;7.50;;;3.08;;
42614;SDS011;28754;47.700;7.924;2023-02-03T02:48:47;11.57;;;3.55;;
42614;SDS011;28754;47.700;7.924;2023-02-03T02:51:42;10.90;;;3.10;;
42614;SDS011;28754;47.700;7.924;2023-02-03T02:54:36;6.53;;;3.08;;
42614;SDS011;28754;47.700;7.924;2023-02-03T03:04:04;9.43;;;3.53;;
42614;SDS011;28754;47.700;7.924;2023-02-03T03:07:07;9.95;;;3.97;;
42614;SDS011;28754;47.700;7.924;2023-02-03T03:10:12;8.35;;;2.92;;
42614;SDS011;28754;47.700;7.924;2023-02-03T03:13:12;7.78;;;3.00;;
42614;SDS011;28754;47.700;7.924;2023-02-03T03:16:06;10.77;;;3.47;;
42614;SDS011;28754;47.700;7.924;2023-02-03T03:18:57;7.20;;;2.33;;
42614;SDS011;28754;47.700;7.924;2023-02-03T03:22:12;8.63;;;3.13;;
42614;SDS011;28754;47.700;7.924;2023-02-03T03:25:05;10.98;;;3.20;;
42614;SDS011;28754;47.700;7.924;2023-02-03T03:28:12;9.25;;;2.55;;
42614;SDS011;28754;47.700;7.924;2023-02-03T03:31:11;6.60;;;2.65;;
42614;SDS011;28754;47.700;7.924;2023-02-03T03:33:58;10.88;;;2.95;;
42614;SDS011;28754;47.700;7.924;2023-02-03T03:36:59;7.90;;;2.90;;
42614;SDS011;28754;47.700;7.924;2023-02-03T03:40:08;11.43;;;3.03;;
42614;SDS011;28754;47.700;7.924;2023-02-03T03:43:13;6.90;;;2.95;;
42614;SDS011;28754;47.700;7.924;2023-02-03T03:46:11;5.68;;;2.78;;
42614;SDS011;28754;47.700;7.924;2023-02-03T03:49:04;6.13;;;2.40;;
42614;SDS011;28754;47.700;7.924;2023-02-03T03:51:59;7.13;;;3.03;;
42614;SDS011;28754;47.700;7.924;2023-02-03T03:54:51;8.65;;;3.45;;
42614;SDS011;28754;47.700;7.924;2023-02-03T03:57:44;9.05;;;2.78;;
42614;SDS011;28754;47.700;7.924;2023-02-03T04:00:46;6.50;;;2.90;;
42614;SDS011;28754;47.700;7.924;2023-02-03T04:06:35;9.15;;;3.05;;
42614;SDS011;28754;47.700;7.924;2023-02-03T04:09:24;6.15;;;2.80;;
42614;SDS011;28754;47.700;7.924;2023-02-03T04:12:21;6.78;;;2.80;;
42614;SDS011;28754;47.700;7.924;2023-02-03T04:15:08;8.35;;;4.15;;
42614;SDS011;28754;47.700;7.924;2023-02-03T04:17:55;11.55;;;2.80;;
42614;SDS011;28754;47.700;7.924;2023-02-03T04:20:42;10.23;;;3.28;;
42614;SDS011;28754;47.700;7.924;2023-02-03T04:23:29;12.93;;;3.35;;
42614;SDS011;28754;47.700;7.924;2023-02-03T04:26:15;9.82;;;2.80;;
42614;SDS011;28754;47.700;7.924;2023-02-03T04:29:02;6.35;;;2.90;;
42614;SDS011;28754;47.700;7.924;2023-02-03T04:31:49;6.63;;;2.53;;
42614;SDS011;28754;47.700;7.924;2023-02-03T04:34:36;7.75;;;3.10;;
42614;SDS011;28754;47.700;7.924;2023-02-03T04:37:23;12.05;;;3.35;;
42614;SDS011;28754;47.700;7.924;2023-02-03T04:40:11;6.93;;;2.40;;
42614;SDS011;28754;47.700;7.924;2023-02-03T04:43:04;5.47;;;2.13;;
42614;SDS011;28754;47.700;7.924;2023-02-03T04:45:52;7.40;;;2.28;;
42614;SDS011;28754;47.700;7.924;2023-02-03T04:48:39;7.43;;;2.30;;
42614;SDS011;28754;47.700;7.924;2023-02-03T04:51:25;9.25;;;2.33;;
42614;SDS011;28754;47.700;7.924;2023-02-03T04:54:12;8.93;;;2.80;;
42614;SDS011;28754;47.700;7.924;2023-02-03T04:56:59;12.90;;;2.50;;
42614;SDS011;28754;47.700;7.924;2023-02-03T04:59:46;9.73;;;2.55;;
42614;SDS011;28754;47.700;7.924;2023-02-03T05:02:32;53.15;;;7.13;;
42614;SDS011;28754;47.700;7.924;2023-02-03T05:05:19;10.30;;;2.67;;
42614;SDS011;28754;47.700;7.924;2023-02-03T05:08:06;40.72;;;5.55;;
42614;SDS011;28754;47.700;7.924;2023-02-03T05:10:53;212.98;;;23.00;;
42614;SDS011;28754;47.700;7.924;2023-02-03T05:13:39;178.32;;;19.23;;
42614;SDS011;28754;47.700;7.924;2023-02-03T05:16:26;113.80;;;12.13;;
42614;SDS011;28754;47.700;7.924;2023-02-03T05:19:13;132.05;;;14.57;;
42614;SDS011;28754;47.700;7.924;2023-02-03T05:21:59;94.75;;;9.60;;
42614;SDS011;28754;47.700;7.924;2023-02-03T05:24:46;345.77;;;37.30;;
42614;SDS011;28754;47.700;7.924;2023-02-03T05:27:33;171.90;;;19.15;;
42614;SDS011;28754;47.700;7.924;2023-02-03T05:30:20;230.32;;;24.25;;
42614;SDS011;28754;47.700;7.924;2023-02-03T05:33:06;293.58;;;30.60;;
42614;SDS011;28754;47.700;7.924;2023-02-03T05:35:53;471.33;;;52.15;;
42614;SDS011;28754;47.700;7.924;2023-02-03T05:38:40;410.73;;;41.47;;
42614;SDS011;28754;47.700;7.924;2023-02-03T05:41:27;139.40;;;14.65;;
42614;SDS011;28754;47.700;7.924;2023-02-03T05:44:32;239.48;;;24.42;;
42614;SDS011;28754;47.700;7.924;2023-02-03T05:47:19;192.63;;;18.65;;
42614;SDS011;28754;47.700;7.924;2023-02-03T05:50:05;211.38;;;23.17;;
42614;SDS011;28754;47.700;7.924;2023-02-03T05:52:52;323.88;;;35.13;;
42614;SDS011;28754;47.700;7.924;2023-02-03T05:55:39;305.50;;;29.58;;
42614;SDS011;28754;47.700;7.924;2023-02-03T05:58:26;443.85;;;46.45;;
42614;SDS011;28754;47.700;7.924;2023-02-03T06:01:13;343.80;;;36.38;;
42614;SDS011;28754;47.700;7.924;2023-02-03T06:03:59;221.50;;;22.00;;
42614;SDS011;28754;47.700;7.924;2023-02-03T06:06:47;97.93;;;11.25;;
42614;SDS011;28754;47.700;7.924;2023-02-03T06:09:34;123.65;;;13.95;;
42614;SDS011;28754;47.700;7.924;2023-02-03T06:12:20;127.15;;;14.13;;
42614;SDS011;28754;47.700;7.924;2023-02-03T06:15:07;29.73;;;4.70;;
42614;SDS011;28754;47.700;7.924;2023-02-03T06:17:55;100.13;;;11.20;;
42614;SDS011;28754;47.700;7.924;2023-02-03T06:20:42;32.42;;;4.78;;
42614;SDS011;28754;47.700;7.924;2023-02-03T06:23:28;18.92;;;3.28;;
42614;SDS011;28754;47.700;7.924;2023-02-03T06:26:15;46.85;;;5.97;;
42614;SDS011;28754;47.700;7.924;2023-02-03T06:29:02;28.40;;;4.30;;
42614;SDS011;28754;47.700;7.924;2023-02-03T06:31:49;9.52;;;2.92;;
42614;SDS011;28754;47.700;7.924;2023-02-03T06:34:36;35.35;;;5.78;;
42614;SDS011;28754;47.700;7.924;2023-02-03T06:37:22;10.90;;;2.80;;
42614;SDS011;28754;47.700;7.924;2023-02-03T06:40:09;6.82;;;2.50;;
42614;SDS011;28754;47.700;7.924;2023-02-03T06:42:57;9.52;;;4.10;;
42614;SDS011;28754;47.700;7.924;2023-02-03T06:45:44;4.32;;;3.47;;
42614;SDS011;28754;47.700;7.924;2023-02-03T06:48:32;19.63;;;4.00;;
42614;SDS011;28754;47.700;7.924;2023-02-03T06:51:18;7.45;;;3.10;;
42614;SDS011;28754;47.700;7.924;2023-02-03T06:54:05;8.05;;;3.08;;
42614;SDS011;28754;47.700;7.924;2023-02-03T06:56:52;9.02;;;2.88;;
42614;SDS011;28754;47.700;7.924;2023-02-03T06:59:39;14.00;;;3.95;;
42614;SDS011;28754;47.700;7.924;2023-02-03T07:02:25;8.88;;;3.53;;
42614;SDS011;28754;47.700;7.924;2023-02-03T07:05:12;4.75;;;2.65;;
42614;SDS011;28754;47.700;7.924;2023-02-03T07:07:59;13.20;;;3.70;;
42614;SDS011;28754;47.700;7.924;2023-02-03T07:10:45;5.85;;;3.35;;
42614;SDS011;28754;47.700;7.924;2023-02-03T07:13:32;8.05;;;2.80;;
42614;SDS011;28754;47.700;7.924;2023-02-03T07:16:19;14.40;;;3.75;;
42614;SDS011;28754;47.700;7.924;2023-02-03T07:19:07;5.35;;;3.05;;
42614;SDS011;28754;47.700;7.924;2023-02-03T07:21:54;7.18;;;3.00;;
42614;SDS011;28754;47.700;7.924;2023-02-03T07:24:40;9.90;;;2.45;;
42614;SDS011;28754;47.700;7.924;2023-02-03T07:27:27;13.38;;;3.35;;
42614;SDS011;28754;47.700;7.924;2023-02-03T07:30:14;8.90;;;2.60;;
42614;SDS011;28754;47.700;7.924;2023-02-03T07:33:01;9.98;;;2.47;;
42614;SDS011;28754;47.700;7.924;2023-02-03T07:35:58;6.93;;;3.25;;
42614;SDS011;28754;47.700;7.924;2023-02-03T07:38:45;7.20;;;2.55;;
42614;SDS011;28754;47.700;7.924;2023-02-03T07:41:32;6.50;;;2.88;;
42614;SDS011;28754;47.700;7.924;2023-02-03T07:44:18;6.68;;;2.67;;
42614;SDS011;28754;47.700;7.924;2023-02-03T07:47:05;4.63;;;3.00;;
42614;SDS011;28754;47.700;7.924;2023-02-03T07:49:52;5.78;;;2.67;;
42614;SDS011;28754;47.700;7.924;2023-02-03T07:52:38;4.45;;;2.78;;
42614;SDS011;28754;47.700;7.924;2023-02-03T07:55:25;8.25;;;2.80;;
42614;SDS011;28754;47.700;7.924;2023-02-03T07:58:13;7.60;;;2.65;;
42614;SDS011;28754;47.700;7.924;2023-02-03T08:00:59;8.23;;;2.80;;
42614;SDS011;28754;47.700;7.924;2023-02-03T08:03:46;6.35;;;2.55;;
42614;SDS011;28754;47.700;7.924;2023-02-03T08:06:33;16.65;;;3.70;;
42614;SDS011;28754;47.700;7.924;2023-02-03T08:09:19;8.45;;;2.38;;
42614;SDS011;28754;47.700;7.924;2023-02-03T08:12:06;7.88;;;3.58;;
42614;SDS011;28754;47.700;7.924;2023-02-03T08:14:53;20.10;;;3.45;;
42614;SDS011;28754;47.700;7.924;2023-02-03T08:17:40;8.65;;;3.05;;
42614;SDS011;28754;47.700;7.924;2023-02-03T08:20:26;5.63;;;2.55;;
42614;SDS011;28754;47.700;7.924;2023-02-03T08:23:13;9.10;;;2.38;;
42614;SDS011;28754;47.700;7.924;2023-02-03T08:26:00;5.05;;;2.40;;
42614;SDS011;28754;47.700;7.924;2023-02-03T08:28:47;11.88;;;2.63;;
42614;SDS011;28754;47.700;7.924;2023-02-03T08:31:35;9.90;;;4.65;;
42614;SDS011;28754;47.700;7.924;2023-02-03T08:34:21;8.93;;;3.10;;
42614;SDS011;28754;47.700;7.924;2023-02-03T08:37:09;11.00;;;3.00;;
42614;SDS011;28754;47.700;7.924;2023-02-03T08:39:58;8.15;;;2.58;;
42614;SDS011;28754;47.700;7.924;2023-02-03T08:42:45;4.50;;;2.88;;
42614;SDS011;28754;47.700;7.924;2023-02-03T08:45:32;12.25;;;3.47;;
42614;SDS011;28754;47.700;7.924;2023-02-03T08:48:18;8.90;;;3.50;;
42614;SDS011;28754;47.700;7.924;2023-02-03T08:51:08;11.25;;;3.22;;
42614;SDS011;28754;47.700;7.924;2023-02-03T08:53:58;25.42;;;4.65;;
42614;SDS011;28754;47.700;7.924;2023-02-03T08:56:45;6.43;;;3.25;;
42614;SDS011;28754;47.700;7.924;2023-02-03T08:59:31;8.50;;;3.25;;
42614;SDS011;28754;47.700;7.924;2023-02-03T09:02:21;6.72;;;2.97;;
42614;SDS011;28754;47.700;7.924;2023-02-03T09:05:07;6.20;;;2.72;;
42614;SDS011;28754;47.700;7.924;2023-02-03T09:07:54;6.93;;;2.90;;
42614;SDS011;28754;47.700;7.924;2023-02-03T09:10:41;9.90;;;2.95;;
42614;SDS011;28754;47.700;7.924;2023-02-03T09:13:28;7.43;;;2.65;;
42614;SDS011;28754;47.700;7.924;2023-02-03T09:16:15;21.08;;;4.22;;
42614;SDS011;28754;47.700;7.924;2023-02-03T09:19:04;8.73;;;3.28;;
42614;SDS011;28754;47.700;7.924;2023-02-03T09:21:51;12.32;;;3.13;;
42614;SDS011;28754;47.700;7.924;2023-02-03T09:24:37;10.57;;;3.20;;
42614;SDS011;28754;47.700;7.924;2023-02-03T09:27:24;9.13;;;2.70;;
42614;SDS011;28754;47.700;7.924;2023-02-03T09:30:11;6.57;;;3.13;;
42614;SDS011;28754;47.700;7.924;2023-02-03T09:32:59;10.73;;;3.17;;
42614;SDS011;28754;47.700;7.924;2023-02-03T09:35:52;8.02;;;2.72;;
42614;SDS011;28754;47.700;7.924;2023-02-03T09:38:40;7.93;;;3.88;;
42614;SDS011;28754;47.700;7.924;2023-02-03T09:47:45;11.13;;;5.47;;
42614;SDS011;28754;47.700;7.924;2023-02-03T09:50:38;12.05;;;3.75;;
42614;SDS011;28754;47.700;7.924;2023-02-03T09:53:32;10.50;;;3.25;;
42614;SDS011;28754;47.700;7.924;2023-02-03T09:56:33;11.45;;;4.70;;
42614;SDS011;28754;47.700;7.924;2023-02-03T09:59:21;5.93;;;3.20;;
42614;SDS011;28754;47.700;7.924;2023-02-03T10:18:35;5.45;;;2.60;;
42614;SDS011;28754;47.700;7.924;2023-02-03T10:21:40;3.47;;;1.70;;
42614;SDS011;28754;47.700;7.924;2023-02-03T10:24:39;6.53;;;2.17;;
42614;SDS011;28754;47.700;7.924;2023-02-03T10:27:37;2.47;;;1.70;;
42614;SDS011;28754;47.700;7.924;2023-02-03T10:30:25;3.28;;;1.98;;
42614;SDS011;28754;47.700;7.924;2023-02-03T10:33:16;4.10;;;2.00;;
42614;SDS011;28754;47.700;7.924;2023-02-03T10:39:51;3.67;;;1.58;;
42614;SDS011;28754;47.700;7.924;2023-02-03T10:42:28;2.10;;;1.33;;
42614;SDS011;28754;47.700;7.924;2023-02-03T10:45:37;4.50;;;1.85;;
42614;SDS011;28754;47.700;7.924;2023-02-03T10:48:24;5.03;;;1.90;;
42614;SDS011;28754;47.700;7.924;2023-02-03T10:54:25;2.42;;;1.27;;
42614;SDS011;28754;47.700;7.924;2023-02-03T10:57:16;6.50;;;3.20;;
42614;SDS011;28754;47.700;7.924;2023-02-03T11:00:37;3.20;;;1.58;;
42614;SDS011;28754;47.700;7.924;2023-02-03T11:06:11;3.17;;;1.75;;
42614;SDS011;28754;47.700;7.924;2023-02-03T11:09:01;6.35;;;1.80;;
42614;SDS011;28754;47.700;7.924;2023-02-03T11:12:11;1.85;;;1.33;;
42614;SDS011;28754;47.700;7.924;2023-02-03T11:15:04;6.03;;;2.60;;
42614;SDS011;28754;47.700;7.924;2023-02-03T11:17:51;1.55;;;1.10;;
42614;SDS011;28754;47.700;7.924;2023-02-03T11:20:38;5.25;;;1.35;;
42614;SDS011;28754;47.700;7.924;2023-02-03T11:23:24;5.88;;;1.48;;
42614;SDS011;28754;47.700;7.924;2023-02-03T11:26:12;1.95;;;1.50;;
42614;SDS011;28754;47.700;7.924;2023-02-03T11:29:04;3.97;;;1.80;;
42614;SDS011;28754;47.700;7.924;2023-02-03T11:31:54;4.07;;;1.65;;
42614;SDS011;28754;47.700;7.924;2023-02-03T11:34:46;1.95;;;1.20;;
42614;SDS011;28754;47.700;7.924;2023-02-03T11:37:42;2.05;;;1.30;;
42614;SDS011;28754;47.700;7.924;2023-02-03T11:40:32;1.98;;;1.30;;
42614;SDS011;28754;47.700;7.924;2023-02-03T11:43:23;4.25;;;1.73;;
42614;SDS011;28754;47.700;7.924;2023-02-03T11:46:09;1.33;;;0.75;;
42614;SDS011;28754;47.700;7.924;2023-02-03T11:49:07;1.27;;;0.52;;
42614;SDS011;28754;47.700;7.924;2023-02-03T11:52:16;2.67;;;0.50;;
42614;SDS011;28754;47.700;7.924;2023-02-03T11:55:32;2.97;;;0.38;;
42614;SDS011;28754;47.700;7.924;2023-02-03T11:58:41;3.25;;;0.50;;
42614;SDS011;28754;47.700;7.924;2023-02-03T12:02:08;0.13;;;0.13;;
42614;SDS011;28754;47.700;7.924;2023-02-03T12:08:48;0.40;;;0.40;;
42614;SDS011;28754;47.700;7.924;2023-02-03T12:15:08;0.32;;;0.28;;
42614;SDS011;28754;47.700;7.924;2023-02-03T12:18:20;0.50;;;0.40;;
42614;SDS011;28754;47.700;7.924;2023-02-03T12:31:15;0.55;;;0.20;;
42614;SDS011;28754;47.700;7.924;2023-02-03T12:37:20;0.50;;;0.30;;
42614;SDS011;28754;47.700;7.924;2023-02-03T12:40:16;0.82;;;0.17;;
42614;SDS011;28754;47.700;7.924;2023-02-03T12:52:04;1.30;;;0.50;;
42614;SDS011;28754;47.700;7.924;2023-02-03T13:08:29;0.90;;;0.70;;
42614;SDS011;28754;47.700;7.924;2023-02-03T13:14:38;1.63;;;0.60;;
42614;SDS011;28754;47.700;7.924;2023-02-03T13:17:42;1.20;;;0.80;;
42614;SDS011;28754;47.700;7.924;2023-02-03T13:21:00;1.27;;;0.63;;
42614;SDS011;28754;47.700;7.924;2023-02-03T13:23:47;0.88;;;0.60;;
42614;SDS011;28754;47.700;7.924;2023-02-03T13:39:34;3.08;;;0.50;;
42614;SDS011;28754;47.700;7.924;2023-02-03T13:42:41;1.23;;;0.52;;
42614;SDS011;28754;47.700;7.924;2023-02-03T13:45:39;1.05;;;0.90;;
42614;SDS011;28754;47.700;7.924;2023-02-03T13:48:31;2.22;;;1.35;;
42614;SDS011;28754;47.700;7.924;2023-02-03T13:51:21;2.75;;;1.27;;
42614;SDS011;28754;47.700;7.924;2023-02-03T13:54:36;1.27;;;0.80;;
42614;SDS011;28754;47.700;7.924;2023-02-03T13:57:30;0.90;;;0.60;;
42614;SDS011;28754;47.700;7.924;2023-02-03T14:12:17;2.67;;;0.90;;
42614;SDS011;28754;47.700;7.924;2023-02-03T14:21:20;0.75;;;0.65;;
42614;SDS011;28754;47.700;7.924;2023-02-03T14:24:09;1.00;;;0.60;;
42614;SDS011;28754;47.700;7.924;2023-02-03T14:26:58;2.83;;;1.23;;
42614;SDS011;28754;47.700;7.924;2023-02-03T14:30:08;8.63;;;1.95;;
42614;SDS011;28754;47.700;7.924;2023-02-03T14:33:00;0.93;;;0.50;;
42614;SDS011;28754;47.700;7.924;2023-02-03T14:35:47;0.55;;;0.47;;
42614;SDS011;28754;47.700;7.924;2023-02-03T14:38:34;0.73;;;0.50;;
42614;SDS011;28754;47.700;7.924;2023-02-03T14:41:23;3.65;;;0.80;;
42614;SDS011;28754;47.700;7.924;2023-02-03T14:44:42;1.55;;;0.88;;
42614;SDS011;28754;47.700;7.924;2023-02-03T14:51:50;1.77;;;0.70;;
42614;SDS011;28754;47.700;7.924;2023-02-03T14:55:49;0.85;;;0.50;;
42614;SDS011;28754;47.700;7.924;2023-02-03T14:59:02;0.88;;;0.60;;
42614;SDS011;28754;47.700;7.924;2023-02-03T15:04:42;1.85;;;0.80;;
42614;SDS011;28754;47.700;7.924;2023-02-03T15:07:34;1.02;;;0.70;;
42614;SDS011;28754;47.700;7.924;2023-02-03T15:13:28;1.20;;;0.80;;
42614;SDS011;28754;47.700;7.924;2023-02-03T15:16:20;1.77;;;1.10;;
42614;SDS011;28754;47.700;7.924;2023-02-03T15:19:19;4.28;;;1.38;;
42614;SDS011;28754;47.700;7.924;2023-02-03T15:22:22;3.03;;;1.70;;
42614;SDS011;28754;47.700;7.924;2023-02-03T15:25:15;3.67;;;2.35;;
42614;SDS011;28754;47.700;7.924;2023-02-03T15:28:39;2.50;;;1.55;;
42614;SDS011;28754;47.700;7.924;2023-02-03T15:37:30;3.83;;;1.10;;
42614;SDS011;28754;47.700;7.924;2023-02-03T15:40:32;2.22;;;1.05;;
42614;SDS011;28754;47.700;7.924;2023-02-03T15:43:30;2.17;;;1.17;;
42614;SDS011;28754;47.700;7.924;2023-02-03T15:46:37;2.00;;;1.23;;
42614;SDS011;28754;47.700;7.924;2023-02-03T15:49:34;4.78;;;1.25;;
42614;SDS011;28754;47.700;7.924;2023-02-03T15:52:28;1.88;;;1.08;;
42614;SDS011;28754;47.700;7.924;2023-02-03T15:58:28;6.07;;;2.95;;
42614;SDS011;28754;47.700;7.924;2023-02-03T16:01:22;3.75;;;2.70;;
42614;SDS011;28754;47.700;7.924;2023-02-03T16:04:11;2.17;;;1.33;;
42614;SDS011;28754;47.700;7.924;2023-02-03T16:06:59;3.92;;;1.40;;
42614;SDS011;28754;47.700;7.924;2023-02-03T16:09:46;2.25;;;1.15;;
42614;SDS011;28754;47.700;7.924;2023-02-03T16:12:36;4.35;;;1.10;;
42614;SDS011;28754;47.700;7.924;2023-02-03T16:15:23;2.20;;;1.20;;
42614;SDS011;28754;47.700;7.924;2023-02-03T16:18:15;2.10;;;1.40;;
42614;SDS011;28754;47.700;7.924;2023-02-03T16:21:03;6.75;;;1.40;;
42614;SDS011;28754;47.700;7.924;2023-02-03T16:23:50;1.73;;;0.90;;
42614;SDS011;28754;47.700;7.924;2023-02-03T16:26:37;2.33;;;1.20;;
42614;SDS011;28754;47.700;7.924;2023-02-03T16:29:27;1.67;;;1.30;;
42614;SDS011;28754;47.700;7.924;2023-02-03T16:32:33;2.05;;;1.30;;
42614;SDS011;28754;47.700;7.924;2023-02-03T16:35:39;3.55;;;1.25;;
42614;SDS011;28754;47.700;7.924;2023-02-03T16:38:47;1.38;;;1.00;;
42614;SDS011;28754;47.700;7.924;2023-02-03T16:41:54;2.65;;;1.40;;
42614;SDS011;28754;47.700;7.924;2023-02-03T16:45:04;2.85;;;1.05;;
42614;SDS011;28754;47.700;7.924;2023-02-03T16:48:21;1.67;;;0.88;;
42614;SDS011;28754;47.700;7.924;2023-02-03T16:51:28;1.98;;;1.33;;
42614;SDS011;28754;47.700;7.924;2023-02-03T16:54:26;1.23;;;1.10;;
42614;SDS011;28754;47.700;7.924;2023-02-03T16:57:13;1.88;;;1.38;;
42614;SDS011;28754;47.700;7.924;2023-02-03T16:59:59;1.83;;;1.40;;
42614;SDS011;28754;47.700;7.924;2023-02-03T17:02:49;2.58;;;1.40;;
42614;SDS011;28754;47.700;7.924;2023-02-03T17:05:37;1.35;;;1.00;;
42614;SDS011;28754;47.700;7.924;2023-02-03T17:08:26;2.15;;;1.08;;
42614;SDS011;28754;47.700;7.924;2023-02-03T17:11:19;1.67;;;0.88;;
42614;SDS011;28754;47.700;7.924;2023-02-03T17:14:08;2.70;;;1.10;;
42614;SDS011;28754;47.700;7.924;2023-02-03T17:16:55;2.97;;;0.88;;
42614;SDS011;28754;47.700;7.924;2023-02-03T17:19:42;2.35;;;1.30;;
42614;SDS011;28754;47.700;7.924;2023-02-03T17:22:28;6.35;;;1.33;;
42614;SDS011;28754;47.700;7.924;2023-02-03T17:25:17;1.10;;;0.80;;
42614;SDS011;28754;47.700;7.924;2023-02-03T17:28:05;1.35;;;0.85;;
42614;SDS011;28754;47.700;7.924;2023-02-03T17:33:48;1.67;;;1.23;;
42614;SDS011;28754;47.700;7.924;2023-02-03T17:36:36;1.88;;;0.80;;
42614;SDS011;28754;47.700;7.924;2023-02-03T17:39:23;1.45;;;0.95;;
42614;SDS011;28754;47.700;7.924;2023-02-03T17:42:09;1.65;;;0.85;;
42614;SDS011;28754;47.700;7.924;2023-02-03T17:44:56;1.05;;;0.82;;
42614;SDS011;28754;47.700;7.924;2023-02-03T17:47:43;2.28;;;0.80;;
42614;SDS011;28754;47.700;7.924;2023-02-03T17:50:29;6.63;;;0.98;;
42614;SDS011;28754;47.700;7.924;2023-02-03T17:53:16;2.90;;;1.30;;
42614;SDS011;28754;47.700;7.924;2023-02-03T17:56:10;3.08;;;1.02;;
42614;SDS011;28754;47.700;7.924;2023-02-03T17:59:09;2.13;;;1.00;;
42614;SDS011;28754;47.700;7.924;2023-02-03T18:01:56;1.52;;;0.85;;
42614;SDS011;28754;47.700;7.924;2023-02-03T18:04:42;2.28;;;1.08;;
42614;SDS011;28754;47.700;7.924;2023-02-03T18:07:29;1.13;;;0.93;;
42614;SDS011;28754;47.700;7.924;2023-02-03T18:10:16;1.65;;;1.10;;
42614;SDS011;28754;47.700;7.924;2023-02-03T18:13:02;2.13;;;1.13;;
42614;SDS011;28754;47.700;7.924;2023-02-03T18:15:49;1.63;;;1.30;;
42614;SDS011;28754;47.700;7.924;2023-02-03T18:18:36;2.78;;;1.23;;
42614;SDS011;28754;47.700;7.924;2023-02-03T18:21:24;2.15;;;1.27;;
42614;SDS011;28754;47.700;7.924;2023-02-03T18:24:12;4.97;;;1.70;;
42614;SDS011;28754;47.700;7.924;2023-02-03T18:26:59;4.28;;;1.70;;
42614;SDS011;28754;47.700;7.924;2023-02-03T18:29:47;2.08;;;1.10;;
42614;SDS011;28754;47.700;7.924;2023-02-03T18:32:34;2.65;;;1.20;;
42614;SDS011;28754;47.700;7.924;2023-02-03T18:35:20;1.70;;;1.48;;
42614;SDS011;28754;47.700;7.924;2023-02-03T18:38:07;4.65;;;1.77;;
42614;SDS011;28754;47.700;7.924;2023-02-03T18:40:55;3.30;;;1.45;;
42614;SDS011;28754;47.700;7.924;2023-02-03T18:43:41;3.72;;;1.17;;
42614;SDS011;28754;47.700;7.924;2023-02-03T18:46:29;1.75;;;1.10;;
42614;SDS011;28754;47.700;7.924;2023-02-03T18:49:17;3.28;;;1.27;;
42614;SDS011;28754;47.700;7.924;2023-02-03T18:52:04;3.47;;;1.27;;
42614;SDS011;28754;47.700;7.924;2023-02-03T18:54:51;1.92;;;1.13;;
42614;SDS011;28754;47.700;7.924;2023-02-03T18:57:40;2.13;;;1.20;;
42614;SDS011;28754;47.700;7.924;2023-02-03T19:00:27;1.67;;;1.30;;
42614;SDS011;28754;47.700;7.924;2023-02-03T19:03:14;2.65;;;0.80;;
42614;SDS011;28754;47.700;7.924;2023-02-03T19:06:09;2.72;;;1.70;;
42614;SDS011;28754;47.700;7.924;2023-02-03T19:08:56;2.15;;;1.65;;
42614;SDS011;28754;47.700;7.924;2023-02-03T19:11:44;2.80;;;1.95;;
42614;SDS011;28754;47.700;7.924;2023-02-03T19:14:31;3.75;;;2.17;;
42614;SDS011;28754;47.700;7.924;2023-02-03T19:17:19;3.47;;;2.63;;
42614;SDS011;28754;47.700;7.924;2023-02-03T19:20:10;2.53;;;1.63;;
42614;SDS011;28754;47.700;7.924;2023-02-03T19:22:58;3.05;;;1.88;;
42614;SDS011;28754;47.700;7.924;2023-02-03T19:25:48;1.92;;;1.38;;
42614;SDS011;28754;47.700;7.924;2023-02-03T19:28:37;1.42;;;1.20;;
42614;SDS011;28754;47.700;7.924;2023-02-03T19:31:27;3.60;;;1.83;;
42614;SDS011;28754;47.700;7.924;2023-02-03T19:34:14;3.33;;;1.30;;
42614;SDS011;28754;47.700;7.924;2023-02-03T19:37:05;6.00;;;1.80;;
42614;SDS011;28754;47.700;7.924;2023-02-03T19:39:53;2.70;;;1.52;;
42614;SDS011;28754;47.700;7.924;2023-02-03T19:42:40;2.50;;;1.30;;
42614;SDS011;28754;47.700;7.924;2023-02-03T19:45:27;1.85;;;1.13;;
42614;SDS011;28754;47.700;7.924;2023-02-03T19:48:13;5.90;;;1.63;;